createdAt,value
2018-04-25T00:02:11.404Z,83.42
2018-04-25T00:07:12.367Z,81.20
2018-04-25T00:12:13.354Z,82.92
2018-04-25T00:17:14.329Z,83.53
2018-04-25T00:22:15.304Z,84.14
2018-04-25T00:27:16.290Z,83.18
2018-04-25T00:32:17.300Z,81.33
2018-04-25T00:37:18.279Z,84.08
2018-04-25T00:42:19.235Z,82.35
2018-04-25T00:47:20.215Z,82.54
2018-04-25T00:52:21.201Z,80.50
2018-04-25T00:57:22.175Z,81.94
2018-04-25T01:02:23.155Z,82.17
2018-04-25T01:07:24.124Z,83.38
2018-04-25T01:12:25.093Z,83.53
2018-04-25T01:17:26.059Z,83.80
2018-04-25T01:22:27.035Z,84.66
2018-04-25T01:27:29.880Z,83.72
2018-04-25T01:32:30.831Z,84.34
2018-04-25T01:37:42.577Z,84.35
2018-04-25T01:42:47.255Z,85.05
2018-04-25T01:47:48.194Z,84.14
2018-04-25T01:53:01.601Z,83.20
2018-04-25T01:58:14.943Z,84.79
2018-04-25T02:03:15.920Z,84.89
2018-04-25T02:08:16.858Z,83.09
2018-04-25T02:13:17.827Z,83.13
2018-04-25T02:18:18.780Z,82.93
2018-04-25T02:23:19.742Z,83.22
2018-04-25T02:28:20.706Z,85.82
2018-04-25T02:33:21.704Z,85.76
2018-04-25T02:38:22.722Z,85.59
2018-04-25T02:43:23.707Z,86.00
2018-04-25T02:48:24.664Z,86.28
2018-04-25T02:53:25.627Z,86.23
2018-04-25T02:58:26.580Z,84.53
2018-04-25T03:03:27.566Z,87.53
2018-04-25T03:08:28.520Z,86.50
2018-04-25T03:13:29.507Z,89.07
2018-04-25T03:18:30.474Z,88.31
2018-04-25T03:23:31.431Z,88.52
2018-04-25T03:28:32.395Z,89.16
2018-04-25T03:33:33.335Z,89.99
2018-04-25T03:38:34.313Z,89.97
2018-04-25T03:43:35.290Z,90.70
2018-04-25T03:48:36.240Z,90.71
2018-04-25T03:53:37.254Z,91.29
2018-04-25T03:58:38.188Z,90.90
2018-04-25T04:03:39.188Z,91.05
2018-04-25T04:08:40.150Z,91.40
2018-04-25T04:13:41.116Z,91.82
2018-04-25T04:18:42.096Z,91.67
2018-04-25T04:23:43.052Z,91.85
2018-04-25T04:28:44.023Z,91.91
2018-04-25T04:33:44.983Z,91.99
2018-04-25T04:38:46.021Z,92.13
2018-04-25T04:43:47.008Z,91.64
2018-04-25T04:48:47.971Z,91.85
2018-04-25T04:53:48.937Z,91.13
2018-04-25T04:58:49.909Z,91.62
2018-04-25T05:03:50.913Z,91.49
2018-04-25T05:08:51.865Z,90.57
2018-04-25T05:13:52.838Z,90.04
2018-04-25T05:18:53.795Z,89.61
2018-04-25T05:23:54.748Z,89.89
2018-04-25T05:28:55.724Z,89.74
2018-04-25T05:33:56.685Z,89.91
2018-04-25T05:38:57.680Z,90.26
2018-04-25T05:43:58.631Z,90.68
2018-04-25T05:48:59.624Z,91.04
2018-04-25T05:54:00.622Z,91.49
2018-04-25T05:59:01.590Z,91.39
2018-04-25T06:04:02.557Z,91.12
2018-04-25T06:09:03.531Z,91.48
2018-04-25T06:14:04.483Z,92.08
2018-04-25T06:19:05.450Z,92.09
2018-04-25T06:24:06.412Z,91.96
2018-04-25T06:29:07.384Z,92.12
2018-04-25T06:34:08.366Z,92.66
2018-04-25T06:39:09.382Z,92.27
2018-04-25T06:44:10.354Z,92.12
2018-04-25T06:49:11.333Z,92.12
2018-04-25T06:54:12.294Z,91.75
2018-04-25T06:59:13.261Z,90.94
2018-04-25T07:04:14.220Z,90.84
2018-04-25T07:09:15.211Z,89.11
2018-04-25T07:14:16.198Z,88.98
2018-04-25T07:19:17.181Z,89.11
2018-04-25T07:24:18.168Z,87.72
2018-04-25T07:29:19.132Z,87.69
2018-04-25T07:34:20.101Z,87.25
2018-04-25T07:39:21.070Z,86.05
2018-04-25T07:44:22.067Z,85.00
2018-04-25T07:49:23.032Z,84.73
2018-04-25T07:54:23.979Z,85.24
2018-04-25T07:59:24.969Z,86.23
2018-04-25T08:04:25.972Z,85.58
2018-04-25T08:09:26.937Z,85.60
2018-04-25T08:14:55.262Z,85.92
2018-04-25T08:20:08.536Z,85.21
2018-04-25T08:25:09.502Z,86.76
2018-04-25T08:30:10.436Z,86.78
2018-04-25T08:35:11.429Z,86.32
2018-04-25T08:40:12.469Z,85.68
2018-04-25T08:45:13.434Z,84.32
2018-04-25T08:50:15.249Z,85.08
2018-04-25T08:55:16.233Z,85.25
2018-04-25T09:00:17.205Z,84.97
2018-04-25T09:05:18.185Z,84.38
2018-04-25T09:10:19.139Z,83.94
2018-04-25T09:15:20.121Z,84.06
2018-04-25T09:20:21.123Z,83.77
2018-04-25T09:25:22.076Z,83.59
2018-04-25T09:30:23.102Z,83.98
2018-04-25T09:35:24.102Z,84.87
2018-04-25T09:40:25.074Z,84.30
2018-04-25T09:45:26.021Z,83.89
2018-04-25T09:50:26.996Z,84.09
2018-04-25T09:55:27.960Z,79.09
2018-04-25T10:00:35.088Z,78.00
2018-04-25T10:05:36.065Z,78.78
2018-04-25T10:10:37.039Z,79.37
2018-04-25T10:15:37.996Z,78.71
2018-04-25T10:20:38.977Z,79.41
2018-04-25T10:25:40.059Z,78.62
2018-04-25T10:30:41.004Z,77.37
2018-04-25T10:35:42.028Z,77.43
2018-04-25T10:40:43.024Z,76.55
2018-04-25T10:45:44.038Z,76.45
2018-04-25T10:50:44.999Z,76.50
2018-04-25T10:55:45.970Z,74.69
2018-04-25T11:00:46.954Z,75.79
2018-04-25T11:05:47.973Z,76.70
2018-04-25T11:10:48.986Z,75.41
2018-04-25T11:15:49.960Z,74.55
2018-04-25T11:20:50.925Z,75.28
2018-04-25T11:25:51.912Z,74.82
2018-04-25T11:30:52.876Z,72.11
2018-04-25T11:35:53.850Z,71.91
2018-04-25T11:40:54.847Z,70.04
2018-04-25T11:45:55.820Z,69.38
2018-04-25T11:50:56.763Z,68.21
2018-04-25T11:55:57.748Z,67.85
2018-04-25T12:00:58.728Z,68.85
2018-04-25T12:05:59.703Z,67.22
2018-04-25T12:11:00.663Z,66.78
2018-04-25T12:16:01.665Z,69.37
2018-04-25T12:21:02.647Z,69.93
2018-04-25T12:26:03.628Z,68.91
2018-04-25T12:31:04.608Z,69.54
2018-04-25T12:36:05.588Z,69.14
2018-04-25T12:41:06.619Z,69.75
2018-04-25T12:46:07.588Z,69.96
2018-04-25T12:51:08.580Z,69.44
2018-04-25T12:56:09.537Z,66.76
2018-04-25T13:01:10.556Z,66.76
2018-04-25T13:06:11.538Z,69.42
2018-04-25T13:11:12.510Z,70.25
2018-04-25T13:16:13.501Z,68.10
2018-04-25T13:21:15.390Z,66.96
2018-04-25T13:26:16.335Z,66.62
2018-04-25T13:31:17.336Z,67.30
2018-04-25T13:36:18.324Z,67.96
2018-04-25T13:41:19.305Z,68.74
2018-04-25T13:46:20.304Z,68.88
2018-04-25T13:51:21.304Z,66.73
2018-04-25T13:56:22.303Z,62.74
2018-04-25T14:01:23.271Z,59.31
2018-04-25T14:06:24.264Z,61.41
2018-04-25T14:11:25.238Z,63.58
2018-04-25T14:16:26.218Z,64.24
2018-04-25T14:21:27.215Z,64.94
2018-04-25T14:26:28.217Z,64.37
2018-04-25T14:31:29.204Z,65.94
2018-04-25T14:36:30.183Z,66.53
2018-04-25T14:41:31.176Z,68.63
2018-04-25T14:46:32.171Z,73.23
2018-04-25T14:51:33.171Z,73.84
2018-04-25T14:56:34.142Z,73.17
2018-04-25T15:01:35.150Z,72.37
2018-04-25T15:06:36.145Z,70.61
2018-04-25T15:11:37.145Z,71.51
2018-04-25T15:16:38.122Z,70.98
2018-04-25T15:21:39.090Z,71.15
2018-04-25T15:26:40.104Z,70.56
2018-04-25T15:31:41.095Z,70.26
2018-04-25T15:36:42.085Z,70.24
2018-04-25T15:41:43.108Z,69.70
2018-04-25T15:46:44.170Z,68.25
2018-04-25T15:51:45.092Z,69.06
2018-04-25T15:56:46.065Z,67.99
2018-04-25T16:01:47.056Z,67.10
2018-04-25T16:06:48.057Z,66.32
2018-04-25T16:11:49.044Z,66.71
2018-04-25T16:16:50.030Z,67.62
2018-04-25T16:21:51.030Z,72.24
2018-04-25T16:26:52.014Z,74.14
2018-04-25T16:31:53.015Z,74.81
2018-04-25T16:36:54.018Z,75.02
2018-04-25T16:41:55.040Z,74.15
2018-04-25T16:46:56.021Z,73.58
2018-04-25T16:51:57.039Z,73.03
2018-04-25T16:56:58.006Z,73.03
2018-04-25T17:01:58.998Z,72.45
2018-04-25T17:06:59.995Z,70.37
2018-04-25T17:12:00.992Z,69.74
2018-04-25T17:17:02.017Z,69.27
2018-04-25T17:22:03.029Z,65.29
2018-04-25T17:27:04.052Z,67.57
2018-04-25T17:32:05.064Z,68.96
2018-04-25T17:37:06.058Z,67.10
2018-04-25T17:42:07.142Z,65.98
2018-04-25T17:47:08.145Z,66.04
2018-04-25T17:52:09.185Z,64.70
2018-04-25T17:57:10.155Z,65.23
2018-04-25T18:02:11.227Z,67.36
2018-04-25T18:07:12.253Z,68.28
2018-04-25T18:12:13.238Z,69.72
2018-04-25T18:17:14.271Z,69.60
2018-04-25T18:22:15.325Z,69.67
2018-04-25T18:27:16.264Z,69.64
2018-04-25T18:32:17.274Z,69.62
2018-04-25T18:37:18.341Z,70.94
2018-04-25T18:42:19.325Z,71.23
2018-04-25T18:47:20.377Z,70.37
2018-04-25T18:52:21.415Z,70.88
2018-04-25T18:57:22.397Z,71.33
2018-04-25T19:02:23.407Z,72.33
2018-04-25T19:07:24.438Z,73.74
2018-04-25T19:12:25.450Z,73.77
2018-04-25T19:17:26.490Z,73.07
2018-04-25T19:22:27.521Z,74.39
2018-04-25T19:27:28.549Z,74.39
2018-04-25T19:32:29.560Z,75.43
2018-04-25T19:37:30.585Z,75.49
2018-04-25T19:42:31.627Z,75.93
2018-04-25T19:47:32.627Z,75.70
2018-04-25T19:52:33.693Z,75.79
2018-04-25T19:57:34.701Z,75.07
2018-04-25T20:02:35.700Z,75.08
2018-04-25T20:07:36.691Z,76.15
2018-04-25T20:12:37.693Z,75.74
2018-04-25T20:17:38.664Z,76.04
2018-04-25T20:22:39.654Z,75.48
2018-04-25T20:27:40.668Z,75.18
2018-04-25T20:32:41.695Z,76.47
2018-04-25T20:37:42.692Z,76.12
2018-04-25T20:42:43.713Z,76.90
2018-04-25T20:47:44.718Z,77.26
2018-04-25T20:52:45.713Z,77.63
2018-04-25T20:57:46.715Z,76.85
2018-04-25T21:02:47.712Z,76.66
2018-04-25T21:07:48.753Z,75.23
2018-04-25T21:12:49.706Z,77.04
2018-04-25T21:17:50.679Z,77.43
2018-04-25T21:22:51.661Z,77.64
2018-04-25T21:27:52.651Z,77.32
2018-04-25T21:32:53.651Z,79.34
2018-04-25T21:37:54.626Z,79.32
2018-04-25T21:42:55.672Z,80.75
2018-04-25T21:47:56.631Z,81.11
2018-04-25T21:52:57.593Z,82.09
2018-04-25T21:57:58.659Z,83.74
2018-04-25T22:02:59.583Z,84.27
2018-04-25T22:08:00.539Z,82.96
2018-04-25T22:13:01.499Z,83.25
2018-04-25T22:18:02.487Z,83.22
2018-04-25T22:23:03.442Z,82.29
2018-04-25T22:28:04.392Z,83.01
2018-04-25T22:33:05.364Z,83.60
2018-04-25T22:38:06.320Z,82.98
2018-04-25T22:43:07.362Z,82.17
2018-04-25T22:48:08.299Z,82.87
2018-04-25T22:53:09.279Z,82.46
2018-04-25T22:58:10.235Z,81.96
2018-04-25T23:03:11.226Z,82.42
2018-04-25T23:08:12.210Z,81.96
2018-04-25T23:13:13.185Z,82.31
2018-04-25T23:18:14.748Z,82.14
2018-04-25T23:23:15.704Z,80.53
2018-04-25T23:28:16.669Z,82.01
2018-04-25T23:33:17.644Z,80.54
2018-04-25T23:38:18.610Z,80.92
2018-04-25T23:43:19.998Z,81.59
2018-04-25T23:48:20.993Z,80.67
2018-04-25T23:53:22.003Z,81.70
2018-04-25T23:58:22.968Z,80.99
